createdAt,value
2022-11-19T00:04:40.599Z,90.63
2022-11-19T00:11:08.205Z,90.59
2022-11-19T00:17:23.596Z,90.5
2022-11-19T00:23:46.615Z,90.91
2022-11-19T00:30:15.431Z,91.13
2022-11-19T00:36:29.613Z,90.88
2022-11-19T00:42:49.580Z,90.95
2022-11-19T00:49:12.570Z,90.85
2022-11-19T00:55:32.654Z,90.89
2022-11-19T01:01:55.606Z,90.84
2022-11-19T01:08:15.597Z,90.87
2022-11-19T01:14:38.669Z,90.8
2022-11-19T01:20:58.598Z,90.73
2022-11-19T01:27:21.605Z,90.51
2022-11-19T01:33:41.621Z,90.35
2022-11-19T01:40:04.579Z,90.4
2022-11-19T01:46:24.576Z,90.41
2022-11-19T01:52:47.597Z,90.4
2022-11-19T01:59:07.556Z,90.63
2022-11-19T02:05:30.595Z,90.31
2022-11-19T02:11:50.595Z,90.27
2022-11-19T02:18:13.591Z,90.19
2022-11-19T02:24:33.572Z,90.43
2022-11-19T02:30:56.608Z,90.77
2022-11-19T02:37:16.571Z,90.62
2022-11-19T02:43:39.598Z,90.6
2022-11-19T02:49:59.639Z,90.45
2022-11-19T02:56:22.573Z,90.05
2022-11-19T03:02:42.616Z,90
2022-11-19T03:09:05.624Z,90.21
2022-11-19T03:15:25.587Z,89.03
2022-11-19T03:21:48.570Z,88.86
2022-11-19T03:28:08.619Z,88.76
2022-11-19T03:34:31.609Z,88.43
2022-11-19T03:40:51.619Z,88.27
2022-11-19T03:47:14.616Z,88.93
2022-11-19T03:53:34.573Z,88.29
2022-11-19T03:59:57.588Z,88.53
2022-11-19T04:06:17.644Z,88.7
2022-11-19T04:12:40.613Z,88.1
2022-11-19T04:19:00.614Z,88.22
2022-11-19T04:42:07.619Z,88.19
2022-11-19T04:48:30.564Z,88.45
2022-11-19T04:54:50.574Z,88.69
2022-11-19T05:01:13.648Z,88.8
2022-11-19T05:07:33.668Z,89.25
2022-11-19T05:13:56.650Z,88.53
2022-11-19T05:20:16.751Z,88.43
2022-11-19T05:26:39.639Z,88.5
2022-11-19T05:32:59.574Z,88.1
2022-11-19T05:39:22.742Z,87.89
2022-11-19T05:45:42.643Z,88.11
2022-11-19T05:52:05.578Z,88.83
2022-11-19T05:58:25.679Z,88.58
2022-11-19T06:04:48.580Z,87.9
2022-11-19T06:11:08.689Z,87.54
2022-11-19T06:17:31.620Z,87.66
2022-11-19T06:23:51.596Z,88.22
2022-11-19T06:30:14.604Z,88.09
2022-11-19T06:36:39.017Z,88.12
2022-11-19T06:42:57.670Z,87.73
2022-11-19T06:49:20.248Z,88.61
2022-11-19T06:55:40.641Z,88.36
2022-11-19T07:02:00.668Z,88.01
2022-11-19T07:08:23.574Z,87.77
2022-11-19T07:14:43.645Z,87.83
2022-11-19T07:21:06.579Z,87.61
2022-11-19T07:27:26.561Z,87.59
2022-11-19T07:33:49.685Z,87.52
2022-11-19T07:40:09.601Z,86.66
2022-11-19T07:46:32.613Z,86.68
2022-11-19T07:52:52.614Z,87.13
2022-11-19T07:59:15.591Z,86.84
2022-11-19T08:05:35.646Z,86.75
2022-11-19T08:11:58.610Z,86.69
2022-11-19T08:18:18.618Z,86.51
2022-11-19T08:24:41.611Z,85.79
2022-11-19T08:31:01.678Z,86.18
2022-11-19T08:37:24.778Z,85.76
2022-11-19T08:43:44.608Z,86.11
2022-11-19T08:50:07.744Z,86.2
2022-11-19T08:56:27.591Z,84.76
2022-11-19T09:02:50.688Z,84.99
2022-11-19T09:09:10.668Z,84.64
2022-11-19T09:15:33.694Z,84.07
2022-11-19T09:39:32.527Z,83.5
2022-11-19T09:45:52.564Z,83.04
2022-11-19T09:52:15.551Z,82.86
2022-11-19T09:58:35.626Z,83.5
2022-11-19T10:04:58.590Z,83.21
2022-11-19T10:11:18.606Z,83.28
2022-11-19T10:17:41.644Z,82.77
2022-11-19T10:24:01.580Z,81.79
2022-11-19T10:30:24.604Z,81.73
2022-11-19T10:36:44.612Z,80.8
2022-11-19T10:43:07.594Z,81.84
2022-11-19T10:49:27.558Z,81.79
2022-11-19T10:55:54.386Z,81.49
2022-11-19T11:02:10.570Z,83.24
2022-11-19T11:08:33.587Z,82.35
2022-11-19T11:14:53.706Z,81.96
2022-11-19T11:21:16.585Z,82.48
2022-11-19T11:27:36.623Z,82.17
2022-11-19T11:33:59.626Z,80.81
2022-11-19T11:40:19.593Z,80.76
2022-11-19T11:46:42.597Z,81.03
2022-11-19T11:53:02.606Z,81.93
2022-11-19T11:59:25.608Z,81.06
2022-11-19T12:05:45.625Z,80.43
2022-11-19T12:12:08.613Z,80.79
2022-11-19T12:18:28.602Z,79.09
2022-11-19T12:24:51.619Z,79.39
2022-11-19T12:31:11.645Z,79.67
2022-11-19T12:37:34.608Z,79.53
2022-11-19T12:43:54.586Z,78.83
2022-11-19T12:50:17.692Z,78.43
2022-11-19T12:56:37.599Z,79.02
2022-11-19T13:03:00.577Z,79.7
2022-11-19T13:09:20.891Z,78.44
2022-11-19T13:15:43.575Z,77.76
2022-11-19T13:22:03.628Z,77.87
2022-11-19T13:28:26.640Z,78
2022-11-19T13:34:46.608Z,78.4
2022-11-19T13:41:09.641Z,79.04
2022-11-19T13:47:29.643Z,77.86
2022-11-19T13:53:52.623Z,78.19
2022-11-19T14:00:12.564Z,79.42
2022-11-19T14:06:35.629Z,78.83
2022-11-19T14:12:55.640Z,77.81
2022-11-19T14:19:18.901Z,79.39
2022-11-19T14:25:38.623Z,78.27
2022-11-19T14:32:01.586Z,78.22
2022-11-19T14:47:51.510Z,78.52
2022-11-19T14:54:11.559Z,78.99
2022-11-19T15:00:34.566Z,78.29
2022-11-19T15:06:54.612Z,79.32
2022-11-19T15:13:17.560Z,79.72
2022-11-19T15:19:37.614Z,78.59
2022-11-19T15:26:00.662Z,79.06
2022-11-19T15:32:20.570Z,78.59
2022-11-19T15:38:43.596Z,79.96
2022-11-19T15:45:03.609Z,79.07
2022-11-19T15:51:26.574Z,78.98
2022-11-19T15:57:46.602Z,79.57
2022-11-19T16:04:09.627Z,79.07
2022-11-19T16:10:29.639Z,78.82
2022-11-19T16:16:52.559Z,78.56
2022-11-19T16:23:12.651Z,79.42
2022-11-19T16:29:35.610Z,79.32
2022-11-19T16:35:55.594Z,79.36
2022-11-19T16:42:18.654Z,79.87
2022-11-19T16:48:38.628Z,78.89
2022-11-19T16:55:01.600Z,79.74
2022-11-19T17:01:24.395Z,78.84
2022-11-19T17:07:44.692Z,78.96
2022-11-19T17:14:04.623Z,78.41
2022-11-19T17:20:27.609Z,78.56
2022-11-19T17:26:47.635Z,79.01
2022-11-19T17:33:10.606Z,78.47
2022-11-19T17:39:30.656Z,77.86
2022-11-19T17:45:53.613Z,78.7
2022-11-19T17:52:14.545Z,78.55
2022-11-19T17:58:36.739Z,78.52
2022-11-19T18:04:56.554Z,78.88
2022-11-19T18:11:19.590Z,78.96
2022-11-19T18:17:39.696Z,78.36
2022-11-19T18:24:02.561Z,78.52
2022-11-19T18:30:22.632Z,79.02
2022-11-19T18:36:45.885Z,78.71
2022-11-19T18:43:05.624Z,78.74
2022-11-19T18:49:28.643Z,79.33
2022-11-19T18:55:48.697Z,78.93
2022-11-19T19:02:11.730Z,79.59
2022-11-19T19:08:31.640Z,79.94
2022-11-19T19:14:54.820Z,79.3
2022-11-19T19:21:14.556Z,79.88
2022-11-19T19:27:37.609Z,80.92
2022-11-19T19:33:57.710Z,80.2
2022-11-19T19:49:35.993Z,79.86
2022-11-19T19:55:51.578Z,79.55
2022-11-19T20:02:14.650Z,79.55
2022-11-19T20:08:34.603Z,79.66
2022-11-19T20:14:57.646Z,79.18
2022-11-19T20:21:17.645Z,79.79
2022-11-19T20:27:40.592Z,78.96
2022-11-19T20:34:00.578Z,78.62
2022-11-19T20:40:23.648Z,78.71
2022-11-19T20:46:43.639Z,79.11
2022-11-19T20:53:06.566Z,78.67
2022-11-19T20:59:26.827Z,78.89
2022-11-19T21:05:49.660Z,78.07
2022-11-19T21:12:09.597Z,78.66
2022-11-19T21:18:36.571Z,78.62
2022-11-19T21:24:53.518Z,78.63
2022-11-19T21:31:15.602Z,78.5
2022-11-19T21:37:35.611Z,78.57
2022-11-19T21:43:58.606Z,78.79
2022-11-19T21:50:18.600Z,79.99
2022-11-19T21:56:41.680Z,79.71
2022-11-19T22:03:01.615Z,79.33
2022-11-19T22:09:24.577Z,78.52
2022-11-19T22:15:44.608Z,79.07
2022-11-19T22:22:07.648Z,79.02
2022-11-19T22:28:27.656Z,79.08
2022-11-19T22:34:50.617Z,78.21
2022-11-19T22:41:10.644Z,78.21
2022-11-19T22:47:33.576Z,78.71
2022-11-19T22:53:53.573Z,79.03
2022-11-19T23:00:16.667Z,78.26
2022-11-19T23:23:13.794Z,77.59
2022-11-19T23:29:33.556Z,77.36
2022-11-19T23:35:56.624Z,76.04
2022-11-19T23:42:16.615Z,76.77
2022-11-19T23:48:39.599Z,76.5
2022-11-19T23:54:59.596Z,77.22
